createdAt,value
2023-01-26T00:00:38.325Z,69.63
2023-01-26T00:02:40.019Z,69.37
2023-01-26T00:04:41.660Z,69.71
2023-01-26T00:06:43.280Z,69.87
2023-01-26T00:08:47.511Z,69.48
2023-01-26T00:10:51.985Z,69.85
2023-01-26T00:12:53.653Z,69.73
2023-01-26T00:14:55.209Z,70.02
2023-01-26T00:16:56.780Z,69.58
2023-01-26T00:18:58.449Z,68.96
2023-01-26T00:21:01.785Z,69.60
2023-01-26T00:23:03.438Z,69.65
2023-01-26T00:25:05.398Z,69.72
2023-01-26T00:27:06.940Z,68.97
2023-01-26T00:29:09.707Z,69.34
2023-01-26T00:31:18.350Z,68.68
2023-01-26T00:33:19.993Z,69.00
2023-01-26T00:35:21.552Z,69.66
2023-01-26T00:37:23.188Z,69.79
2023-01-26T00:39:24.852Z,69.93
2023-01-26T00:41:44.651Z,69.67
2023-01-26T00:43:46.240Z,69.73
2023-01-26T00:45:47.910Z,69.53
2023-01-26T00:47:49.600Z,69.49
2023-01-26T00:49:51.340Z,69.44
2023-01-26T00:51:52.904Z,69.60
2023-01-26T00:53:54.533Z,69.08
2023-01-26T00:55:58.127Z,69.01
2023-01-26T00:58:00.700Z,69.06
2023-01-26T01:00:02.343Z,69.65
2023-01-26T01:02:04.344Z,69.74
2023-01-26T01:04:06.006Z,69.73
2023-01-26T01:06:07.610Z,69.90
2023-01-26T01:08:09.233Z,69.58
2023-01-26T01:10:11.622Z,69.41
2023-01-26T01:12:13.309Z,69.17
2023-01-26T01:14:15.445Z,69.34
2023-01-26T01:16:17.383Z,69.14
2023-01-26T01:18:19.073Z,68.95
2023-01-26T01:20:20.773Z,67.96
2023-01-26T01:22:22.493Z,68.06
2023-01-26T01:24:24.200Z,68.22
2023-01-26T01:26:26.623Z,68.53
2023-01-26T01:28:28.686Z,68.94
2023-01-26T01:30:30.308Z,69.01
2023-01-26T01:32:31.873Z,69.35
2023-01-26T01:34:33.462Z,68.99
2023-01-26T01:36:35.131Z,68.88
2023-01-26T01:38:36.728Z,68.82
2023-01-26T01:40:43.370Z,68.10
2023-01-26T01:42:48.821Z,68.26
2023-01-26T01:45:21.399Z,67.41
2023-01-26T01:47:26.712Z,68.11
2023-01-26T01:49:31.970Z,68.50
2023-01-26T01:51:51.471Z,67.94
2023-01-26T01:53:54.510Z,68.27
2023-01-26T01:55:59.197Z,68.43
2023-01-26T01:58:01.888Z,67.83
2023-01-26T02:00:09.111Z,67.46
2023-01-26T02:02:10.935Z,67.43
2023-01-26T02:04:12.640Z,68.13
2023-01-26T02:06:16.753Z,67.61
2023-01-26T02:08:19.811Z,67.40
2023-01-26T02:10:21.786Z,67.24
2023-01-26T02:12:27.932Z,67.68
2023-01-26T02:14:29.699Z,66.82
2023-01-26T02:16:31.313Z,66.86
2023-01-26T02:18:33.090Z,66.90
2023-01-26T02:20:47.269Z,67.58
2023-01-26T02:22:55.105Z,67.62
2023-01-26T02:24:59.729Z,67.51
2023-01-26T02:27:01.581Z,67.58
2023-01-26T02:29:05.031Z,67.54
2023-01-26T02:31:06.887Z,67.41
2023-01-26T02:33:15.349Z,67.68
2023-01-26T02:35:16.989Z,68.18
2023-01-26T02:37:18.603Z,68.46
2023-01-26T02:39:32.364Z,67.94
2023-01-26T02:41:52.787Z,68.29
2023-01-26T02:43:54.419Z,68.02
2023-01-26T02:45:56.067Z,67.93
2023-01-26T02:47:58.016Z,67.58
2023-01-26T02:50:00.653Z,68.12
2023-01-26T02:52:02.266Z,67.76
2023-01-26T02:54:03.989Z,67.42
2023-01-26T02:56:05.971Z,67.70
2023-01-26T02:58:08.206Z,67.61
2023-01-26T03:00:12.738Z,67.49
2023-01-26T03:02:15.792Z,67.43
2023-01-26T03:04:17.418Z,67.82
2023-01-26T03:06:19.029Z,67.91
2023-01-26T03:08:20.625Z,67.63
2023-01-26T03:10:24.276Z,67.96
2023-01-26T03:12:26.338Z,68.01
2023-01-26T03:14:27.988Z,68.62
2023-01-26T03:16:29.596Z,67.98
2023-01-26T03:18:49.451Z,67.87
2023-01-26T03:21:09.908Z,68.23
2023-01-26T03:23:30.006Z,68.71
2023-01-26T03:25:49.983Z,68.64
2023-01-26T03:27:51.575Z,68.68
2023-01-26T03:29:54.057Z,68.39
2023-01-26T03:31:55.672Z,67.61
2023-01-26T03:33:57.295Z,67.56
2023-01-26T03:35:58.982Z,67.57
2023-01-26T03:38:00.604Z,67.51
2023-01-26T03:40:21.717Z,67.50
2023-01-26T03:42:41.813Z,66.95
2023-01-26T03:45:01.674Z,67.01
2023-01-26T03:47:21.897Z,67.13
2023-01-26T03:49:41.909Z,67.70
2023-01-26T03:52:01.704Z,67.20
2023-01-26T03:54:22.149Z,67.05
2023-01-26T03:56:32.349Z,67.10
2023-01-26T03:58:34.041Z,66.77
2023-01-26T04:00:35.609Z,67.09
2023-01-26T04:02:55.534Z,67.16
2023-01-26T04:05:15.945Z,66.55
2023-01-26T04:07:37.581Z,66.37
2023-01-26T04:09:42.029Z,65.97
2023-01-26T04:11:43.803Z,66.65
2023-01-26T04:14:03.854Z,66.77
2023-01-26T04:16:24.725Z,67.19
2023-01-26T04:18:44.811Z,67.73
2023-01-26T04:21:04.905Z,67.72
2023-01-26T04:23:06.525Z,68.02
2023-01-26T04:25:09.265Z,68.05
2023-01-26T04:27:11.792Z,68.16
2023-01-26T04:29:15.054Z,67.76
2023-01-26T04:31:16.898Z,67.87
2023-01-26T04:33:18.544Z,67.81
2023-01-26T04:35:20.202Z,67.52
2023-01-26T04:37:22.368Z,68.06
2023-01-26T04:39:24.025Z,67.92
2023-01-26T04:41:25.707Z,68.30
2023-01-26T04:43:27.440Z,68.69
2023-01-26T04:45:29.031Z,68.60
2023-01-26T04:47:30.775Z,68.40
2023-01-26T04:49:32.426Z,68.20
2023-01-26T04:51:34.336Z,67.79
2023-01-26T04:53:35.958Z,68.29
2023-01-26T04:55:37.603Z,68.19
2023-01-26T04:57:39.285Z,67.96
2023-01-26T04:59:40.894Z,67.97
2023-01-26T05:01:42.809Z,67.85
2023-01-26T05:03:44.698Z,67.85
2023-01-26T05:05:50.062Z,67.59
2023-01-26T05:07:53.365Z,67.06
2023-01-26T05:09:55.755Z,67.34
2023-01-26T05:12:17.366Z,66.89
2023-01-26T05:14:19.030Z,67.74
2023-01-26T05:16:20.793Z,68.12
2023-01-26T05:18:22.419Z,68.22
2023-01-26T05:20:23.997Z,67.97
2023-01-26T05:22:25.623Z,67.06
2023-01-26T05:24:27.223Z,67.28
2023-01-26T05:26:28.839Z,67.11
2023-01-26T05:28:30.646Z,66.63
2023-01-26T05:30:32.379Z,66.86
2023-01-26T05:32:34.011Z,67.65
2023-01-26T05:34:35.573Z,67.40
2023-01-26T05:36:37.373Z,67.66
2023-01-26T05:38:39.070Z,67.63
2023-01-26T05:40:40.672Z,67.03
2023-01-26T05:42:44.116Z,67.12
2023-01-26T05:44:45.755Z,67.13
2023-01-26T05:46:47.367Z,66.56
2023-01-26T05:48:48.985Z,66.68
2023-01-26T05:50:50.583Z,66.61
2023-01-26T05:52:52.160Z,66.43
2023-01-26T05:54:53.778Z,66.71
2023-01-26T05:56:57.444Z,66.80
2023-01-26T05:58:59.134Z,66.65
2023-01-26T06:01:04.529Z,66.38
2023-01-26T06:03:06.121Z,66.27
2023-01-26T06:05:08.543Z,65.85
2023-01-26T06:07:10.392Z,65.42
2023-01-26T06:09:12.199Z,65.66
2023-01-26T06:11:13.840Z,65.67
2023-01-26T06:13:15.440Z,65.35
2023-01-26T06:15:17.096Z,65.31
2023-01-26T06:17:18.827Z,64.93
2023-01-26T06:19:20.501Z,65.18
2023-01-26T06:21:22.342Z,65.27
2023-01-26T06:23:24.156Z,66.20
2023-01-26T06:25:25.736Z,66.36
2023-01-26T06:27:27.337Z,66.32
2023-01-26T06:29:29.503Z,66.13
2023-01-26T06:31:31.366Z,65.95
2023-01-26T06:33:34.946Z,66.16
2023-01-26T06:35:36.645Z,65.70
2023-01-26T06:37:38.483Z,65.35
2023-01-26T06:39:41.665Z,65.27
2023-01-26T06:41:44.494Z,64.91
2023-01-26T06:43:48.287Z,64.96
2023-01-26T06:45:49.904Z,65.25
2023-01-26T06:47:52.199Z,65.78
2023-01-26T06:49:54.354Z,67.40
2023-01-26T06:52:04.541Z,64.73
2023-01-26T06:54:06.222Z,64.77
2023-01-26T06:56:07.873Z,65.29
2023-01-26T06:58:09.431Z,64.64
2023-01-26T07:00:12.671Z,65.24
2023-01-26T07:02:20.165Z,64.97
2023-01-26T07:04:26.002Z,65.43
2023-01-26T07:06:27.598Z,65.31
2023-01-26T07:08:29.467Z,65.60
2023-01-26T07:10:31.098Z,65.21
2023-01-26T07:12:43.226Z,65.16
2023-01-26T07:14:44.799Z,65.63
2023-01-26T07:16:46.392Z,65.85
2023-01-26T07:18:48.012Z,65.79
2023-01-26T07:20:49.659Z,65.47
2023-01-26T07:22:51.852Z,65.91
2023-01-26T07:24:53.623Z,65.85
2023-01-26T07:26:56.181Z,65.57
2023-01-26T07:28:57.750Z,66.03
2023-01-26T07:31:00.156Z,65.48
2023-01-26T07:33:01.858Z,65.62
2023-01-26T07:35:03.828Z,64.81
2023-01-26T07:37:05.481Z,65.01
2023-01-26T07:39:08.604Z,64.95
2023-01-26T07:41:12.510Z,64.44
2023-01-26T07:43:15.347Z,65.02
2023-01-26T07:45:19.771Z,65.20
2023-01-26T07:47:21.331Z,65.50
2023-01-26T07:49:22.926Z,64.93
2023-01-26T07:51:24.589Z,64.26
2023-01-26T07:53:29.240Z,65.22
2023-01-26T07:55:31.074Z,65.09
2023-01-26T07:57:33.969Z,65.06
2023-01-26T07:59:35.657Z,64.74
2023-01-26T08:01:37.343Z,64.75
2023-01-26T08:03:39.511Z,64.31
2023-01-26T08:05:43.601Z,64.44
2023-01-26T08:07:45.191Z,63.86
2023-01-26T08:09:46.771Z,63.96
2023-01-26T08:11:48.639Z,64.20
2023-01-26T08:13:50.223Z,64.31
2023-01-26T08:15:52.127Z,64.22
2023-01-26T08:17:54.661Z,64.36
2023-01-26T08:19:56.257Z,63.90
2023-01-26T08:21:58.085Z,65.00
2023-01-26T08:24:02.095Z,64.71
2023-01-26T08:26:06.160Z,64.33
2023-01-26T08:28:07.882Z,64.85
2023-01-26T08:30:10.328Z,64.88
2023-01-26T08:32:12.495Z,64.82
2023-01-26T08:34:14.145Z,64.15
2023-01-26T08:36:15.770Z,63.77
2023-01-26T08:38:17.503Z,63.35
2023-01-26T08:40:19.249Z,63.88
2023-01-26T08:42:22.565Z,63.58
2023-01-26T08:44:24.443Z,63.45
2023-01-26T08:46:26.570Z,64.21
2023-01-26T08:48:29.560Z,63.87
2023-01-26T08:50:31.194Z,63.35
2023-01-26T08:52:32.826Z,63.49
2023-01-26T08:54:34.455Z,62.98
2023-01-26T08:56:36.145Z,63.11
2023-01-26T08:58:38.047Z,63.17
2023-01-26T09:00:39.872Z,63.04
2023-01-26T09:02:41.568Z,62.90
2023-01-26T09:04:43.198Z,62.56
2023-01-26T09:06:44.838Z,62.39
2023-01-26T09:08:46.416Z,62.39
2023-01-26T09:10:47.984Z,62.87
2023-01-26T09:12:49.560Z,62.58
2023-01-26T09:14:51.120Z,62.13
2023-01-26T09:16:52.750Z,62.56
2023-01-26T09:18:54.659Z,62.70
2023-01-26T09:21:02.819Z,62.55
2023-01-26T09:23:04.581Z,62.34
2023-01-26T09:25:06.755Z,62.32
2023-01-26T09:27:09.151Z,62.43
2023-01-26T09:29:10.864Z,62.10
2023-01-26T09:31:12.810Z,62.15
2023-01-26T09:33:14.466Z,61.96
2023-01-26T09:35:16.555Z,62.10
2023-01-26T09:37:18.803Z,61.58
2023-01-26T09:39:20.389Z,61.78
2023-01-26T09:41:41.052Z,61.93
2023-01-26T09:44:05.103Z,61.91
2023-01-26T09:46:09.684Z,62.10
2023-01-26T09:48:34.938Z,62.39
2023-01-26T09:50:42.137Z,62.21
2023-01-26T09:52:54.599Z,62.02
2023-01-26T09:54:59.255Z,62.34
2023-01-26T09:57:13.774Z,63.02
2023-01-26T09:59:38.566Z,63.27
2023-01-26T10:02:07.700Z,62.89
2023-01-26T10:04:23.266Z,63.21
2023-01-26T10:06:28.557Z,62.69
2023-01-26T10:08:30.813Z,62.96
2023-01-26T10:10:41.583Z,62.48
2023-01-26T10:12:43.362Z,62.84
2023-01-26T10:14:50.139Z,62.32
2023-01-26T10:16:53.305Z,62.35
2023-01-26T10:19:00.642Z,62.50
2023-01-26T10:21:04.327Z,63.14
2023-01-26T10:23:12.118Z,63.12
2023-01-26T10:25:28.233Z,62.91
2023-01-26T10:27:29.874Z,63.17
2023-01-26T10:29:31.494Z,63.51
2023-01-26T10:31:34.531Z,63.97
2023-01-26T10:33:37.764Z,63.58
2023-01-26T10:35:39.555Z,63.26
2023-01-26T10:37:41.333Z,62.86
2023-01-26T10:40:12.280Z,63.03
2023-01-26T10:42:18.408Z,62.97
2023-01-26T10:44:33.307Z,62.84
2023-01-26T10:46:38.032Z,62.48
2023-01-26T10:48:39.791Z,62.61
2023-01-26T10:50:41.484Z,62.76
2023-01-26T10:52:58.253Z,62.55
2023-01-26T10:55:17.306Z,62.39
2023-01-26T10:57:19.512Z,62.37
2023-01-26T10:59:44.071Z,62.40
2023-01-26T11:01:54.000Z,62.48
2023-01-26T11:04:06.038Z,62.47
2023-01-26T11:06:14.821Z,61.90
2023-01-26T11:08:34.814Z,62.13
2023-01-26T11:10:38.377Z,62.01
2023-01-26T11:12:40.051Z,61.65
2023-01-26T11:14:41.623Z,61.81
2023-01-26T11:16:49.834Z,61.33
2023-01-26T11:19:19.516Z,61.83
2023-01-26T11:21:32.158Z,62.36
2023-01-26T11:23:42.743Z,62.10
2023-01-26T11:26:09.421Z,61.97
2023-01-26T11:28:28.323Z,61.56
2023-01-26T11:30:40.450Z,61.79
2023-01-26T11:32:57.300Z,61.78
2023-01-26T11:35:14.393Z,62.13
2023-01-26T11:37:27.903Z,61.78
2023-01-26T11:39:42.102Z,61.92
2023-01-26T11:41:58.379Z,62.03
2023-01-26T11:44:30.371Z,61.89
2023-01-26T11:46:52.947Z,61.70
2023-01-26T11:49:07.467Z,61.31
2023-01-26T11:51:41.422Z,61.02
2023-01-26T11:54:03.829Z,61.50
2023-01-26T11:56:33.839Z,62.26
2023-01-26T11:58:36.935Z,62.30
2023-01-26T12:00:43.707Z,62.30
2023-01-26T12:02:54.320Z,62.65
2023-01-26T12:04:58.906Z,62.48
2023-01-26T12:07:05.339Z,62.63
2023-01-26T12:09:33.412Z,62.31
2023-01-26T12:11:56.253Z,62.81
2023-01-26T12:14:18.833Z,63.28
2023-01-26T12:16:42.273Z,63.30
2023-01-26T12:19:09.810Z,63.29
2023-01-26T12:21:12.231Z,63.42
2023-01-26T12:23:19.174Z,63.42
2023-01-26T12:25:40.373Z,63.69
2023-01-26T12:27:49.830Z,63.19
2023-01-26T12:30:19.234Z,63.29
2023-01-26T12:32:22.638Z,63.13
2023-01-26T12:34:30.037Z,63.71
2023-01-26T12:36:51.124Z,63.71
2023-01-26T12:38:58.445Z,64.09
2023-01-26T12:41:35.640Z,64.26
2023-01-26T12:43:57.986Z,63.75
2023-01-26T12:46:00.917Z,63.97
2023-01-26T12:48:14.884Z,64.39
2023-01-26T12:50:37.670Z,64.35
2023-01-26T12:52:54.789Z,64.69
2023-01-26T12:55:20.448Z,64.95
2023-01-26T12:57:26.624Z,64.73
2023-01-26T12:59:46.805Z,64.80
2023-01-26T13:01:50.487Z,64.58
2023-01-26T13:04:00.354Z,64.52
2023-01-26T13:06:19.291Z,64.35
2023-01-26T13:08:30.202Z,64.92
2023-01-26T13:10:45.258Z,64.62
2023-01-26T13:12:47.933Z,64.95
2023-01-26T13:14:49.550Z,64.74
2023-01-26T13:16:51.262Z,65.01
2023-01-26T13:18:57.615Z,64.91
2023-01-26T13:20:59.442Z,64.84
2023-01-26T13:23:01.176Z,64.42
2023-01-26T13:25:19.403Z,64.40
2023-01-26T13:27:39.204Z,65.15
2023-01-26T13:29:55.384Z,65.32
2023-01-26T13:32:23.063Z,65.14
2023-01-26T13:34:47.239Z,65.67
2023-01-26T13:36:49.561Z,65.70
2023-01-26T13:39:04.228Z,65.74
2023-01-26T13:41:21.158Z,65.35
2023-01-26T13:43:28.528Z,65.76
2023-01-26T13:45:38.752Z,65.73
2023-01-26T13:47:46.180Z,65.39
2023-01-26T13:49:50.449Z,65.42
2023-01-26T13:51:52.154Z,65.44
2023-01-26T13:54:06.883Z,64.86
2023-01-26T13:56:21.668Z,65.23
2023-01-26T13:58:23.654Z,65.45
2023-01-26T14:00:25.364Z,65.07
2023-01-26T14:02:32.749Z,65.14
2023-01-26T14:04:35.351Z,65.16
2023-01-26T14:06:37.774Z,65.12
2023-01-26T14:08:39.579Z,64.85
2023-01-26T14:10:44.165Z,64.99
2023-01-26T14:12:47.410Z,64.59
2023-01-26T14:14:51.803Z,64.60
2023-01-26T14:16:53.645Z,64.48
2023-01-26T14:19:05.859Z,64.62
2023-01-26T14:21:20.711Z,64.70
2023-01-26T14:23:22.292Z,64.42
2023-01-26T14:25:23.901Z,64.20
2023-01-26T14:27:40.081Z,64.21
2023-01-26T14:29:41.688Z,64.01
2023-01-26T14:31:43.287Z,64.00
2023-01-26T14:33:45.235Z,64.10
2023-01-26T14:35:58.811Z,64.54
2023-01-26T14:38:06.701Z,64.41
2023-01-26T14:40:24.868Z,63.70
2023-01-26T14:42:26.528Z,64.20
2023-01-26T14:44:28.217Z,64.09
2023-01-26T14:46:36.074Z,64.15
2023-01-26T14:48:46.525Z,63.79
2023-01-26T14:50:48.394Z,63.59
2023-01-26T14:52:50.340Z,64.21
2023-01-26T14:55:32.246Z,63.77
2023-01-26T14:57:33.950Z,64.04
2023-01-26T14:59:39.965Z,64.12
2023-01-26T15:01:41.763Z,63.95
2023-01-26T15:03:43.421Z,63.39
2023-01-26T15:05:45.128Z,63.75
2023-01-26T15:07:49.375Z,63.59
2023-01-26T15:09:53.845Z,63.93
2023-01-26T15:12:15.866Z,63.52
2023-01-26T15:14:45.803Z,63.94
2023-01-26T15:16:53.774Z,64.07
2023-01-26T15:19:03.902Z,63.68
2023-01-26T15:21:14.642Z,63.98
2023-01-26T15:23:26.475Z,63.79
2023-01-26T15:25:29.573Z,63.54
2023-01-26T15:27:33.146Z,64.24
2023-01-26T15:29:34.954Z,64.53
2023-01-26T15:31:42.400Z,65.43
2023-01-26T15:33:44.084Z,68.88
2023-01-26T15:35:57.480Z,70.87
2023-01-26T15:38:03.830Z,71.61
2023-01-26T15:40:05.869Z,72.78
2023-01-26T15:42:14.111Z,73.01
2023-01-26T15:44:20.232Z,73.45
2023-01-26T15:46:21.908Z,73.76
2023-01-26T15:48:24.545Z,74.43
2023-01-26T15:50:28.203Z,75.02
2023-01-26T15:52:30.625Z,74.39
2023-01-26T15:54:32.293Z,74.39
2023-01-26T15:56:33.953Z,74.24
2023-01-26T15:58:36.848Z,74.81
2023-01-26T16:00:39.152Z,75.57
2023-01-26T16:02:40.817Z,75.48
2023-01-26T16:04:42.867Z,76.44
2023-01-26T16:06:44.472Z,76.02
2023-01-26T16:08:46.081Z,76.29
2023-01-26T16:10:47.826Z,76.04
2023-01-26T16:12:50.923Z,76.16
2023-01-26T16:14:52.524Z,76.14
2023-01-26T16:16:54.166Z,76.00
2023-01-26T16:18:56.276Z,75.92
2023-01-26T16:20:57.956Z,76.05
2023-01-26T16:22:59.887Z,76.81
2023-01-26T16:25:01.451Z,77.72
2023-01-26T16:27:03.351Z,77.71
2023-01-26T16:29:04.925Z,78.01
2023-01-26T16:31:16.552Z,77.95
2023-01-26T16:33:24.530Z,78.18
2023-01-26T16:35:26.420Z,78.07
2023-01-26T16:37:28.035Z,78.53
2023-01-26T16:39:29.670Z,78.95
2023-01-26T16:41:32.592Z,79.53
2023-01-26T16:43:34.261Z,78.89
2023-01-26T16:45:35.893Z,78.97
2023-01-26T16:47:37.538Z,79.68
2023-01-26T16:49:39.209Z,79.48
2023-01-26T16:51:42.575Z,79.80
2023-01-26T16:53:44.466Z,80.16
2023-01-26T16:55:46.043Z,80.34
2023-01-26T16:57:49.894Z,80.93
2023-01-26T16:59:51.603Z,80.45
2023-01-26T17:01:53.291Z,81.06
2023-01-26T17:03:56.124Z,81.09
2023-01-26T17:05:57.861Z,80.94
2023-01-26T17:07:59.463Z,81.35
2023-01-26T17:10:01.133Z,80.48
2023-01-26T17:12:02.883Z,80.59
2023-01-26T17:14:04.636Z,80.16
2023-01-26T17:16:12.676Z,80.04
2023-01-26T17:18:14.315Z,80.49
2023-01-26T17:20:19.649Z,80.12
2023-01-26T17:22:21.693Z,80.48
2023-01-26T17:24:23.394Z,80.04
2023-01-26T17:26:25.059Z,79.99
2023-01-26T17:28:30.155Z,79.50
2023-01-26T17:30:31.838Z,80.16
2023-01-26T17:32:33.612Z,80.06
2023-01-26T17:34:35.267Z,79.32
2023-01-26T17:36:36.880Z,78.46
2023-01-26T17:38:38.513Z,79.67
2023-01-26T17:40:40.286Z,80.50
2023-01-26T17:42:41.858Z,81.17
2023-01-26T17:44:43.479Z,81.73
2023-01-26T17:46:45.173Z,81.46
2023-01-26T17:48:47.541Z,81.65
2023-01-26T17:50:49.789Z,81.09
2023-01-26T17:52:51.591Z,80.85
2023-01-26T17:54:53.327Z,81.12
2023-01-26T17:56:55.645Z,81.39
2023-01-26T17:58:57.279Z,81.83
2023-01-26T18:00:59.124Z,81.73
2023-01-26T18:03:00.714Z,82.29
2023-01-26T18:05:02.281Z,81.76
2023-01-26T18:07:04.026Z,81.51
2023-01-26T18:09:06.703Z,82.13
2023-01-26T18:11:13.078Z,81.42
2023-01-26T18:13:15.362Z,81.26
2023-01-26T18:15:17.102Z,81.11
2023-01-26T18:17:18.780Z,81.61
2023-01-26T18:19:20.448Z,82.11
2023-01-26T18:21:24.121Z,82.09
2023-01-26T18:23:25.848Z,82.79
2023-01-26T18:25:27.651Z,83.08
2023-01-26T18:27:29.266Z,83.81
2023-01-26T18:29:30.818Z,84.20
2023-01-26T18:31:34.778Z,84.44
2023-01-26T18:33:36.497Z,84.33
2023-01-26T18:35:38.112Z,84.80
2023-01-26T18:37:39.774Z,84.65
2023-01-26T18:39:41.402Z,85.24
2023-01-26T18:41:43.589Z,85.16
2023-01-26T18:43:45.772Z,85.06
2023-01-26T18:45:47.471Z,85.16
2023-01-26T18:47:49.896Z,85.04
2023-01-26T18:49:52.456Z,85.12
2023-01-26T18:51:54.255Z,85.36
2023-01-26T18:53:55.937Z,85.22
2023-01-26T18:56:08.640Z,84.93
2023-01-26T18:58:10.275Z,84.79
2023-01-26T19:00:13.945Z,84.59
2023-01-26T19:02:15.749Z,84.92
2023-01-26T19:04:18.450Z,84.00
2023-01-26T19:06:20.375Z,84.34
2023-01-26T19:08:24.844Z,84.34
2023-01-26T19:10:26.480Z,84.54
2023-01-26T19:12:28.042Z,84.33
2023-01-26T19:14:30.009Z,83.72
2023-01-26T19:16:32.186Z,83.26
2023-01-26T19:18:33.797Z,83.23
2023-01-26T19:20:35.386Z,83.00
2023-01-26T19:22:37.012Z,83.17
2023-01-26T19:24:38.716Z,82.88
2023-01-26T19:26:40.317Z,83.17
2023-01-26T19:28:42.157Z,83.26
2023-01-26T19:30:44.446Z,83.20
2023-01-26T19:33:10.295Z,82.64
2023-01-26T19:35:14.490Z,83.25
2023-01-26T19:37:16.523Z,83.42
2023-01-26T19:39:18.276Z,83.19
2023-01-26T19:41:20.712Z,83.35
2023-01-26T19:43:22.378Z,83.41
2023-01-26T19:45:24.208Z,83.01
2023-01-26T19:47:25.773Z,82.70
2023-01-26T19:49:27.458Z,82.92
2023-01-26T19:51:29.548Z,81.87
2023-01-26T19:53:32.631Z,82.31
2023-01-26T19:55:34.810Z,83.40
2023-01-26T19:57:36.386Z,82.69
2023-01-26T19:59:37.984Z,82.87
2023-01-26T20:01:39.579Z,82.46
2023-01-26T20:03:41.226Z,82.62
2023-01-26T20:05:42.874Z,83.09
2023-01-26T20:07:44.957Z,83.33
2023-01-26T20:09:46.625Z,83.27
2023-01-26T20:11:49.135Z,82.85
2023-01-26T20:14:04.088Z,83.21
2023-01-26T20:16:09.855Z,83.77
2023-01-26T20:18:11.802Z,82.51
2023-01-26T20:20:13.700Z,82.55
2023-01-26T20:22:15.373Z,82.18
2023-01-26T20:24:17.557Z,83.65
2023-01-26T20:26:19.935Z,83.91
2023-01-26T20:28:21.568Z,83.57
2023-01-26T20:30:23.208Z,83.19
2023-01-26T20:32:24.789Z,83.63
2023-01-26T20:34:27.367Z,83.64
2023-01-26T20:36:29.294Z,82.98
2023-01-26T20:38:30.906Z,82.48
2023-01-26T20:40:32.543Z,82.50
2023-01-26T20:42:34.127Z,82.49
2023-01-26T20:44:35.691Z,82.45
2023-01-26T20:46:39.488Z,82.73
2023-01-26T20:48:41.703Z,82.80
2023-01-26T20:50:44.995Z,81.73
2023-01-26T20:52:46.777Z,81.54
2023-01-26T20:54:48.345Z,81.97
2023-01-26T20:56:51.378Z,81.85
2023-01-26T20:58:54.086Z,81.81
2023-01-26T21:01:03.647Z,82.05
2023-01-26T21:03:05.786Z,81.61
2023-01-26T21:05:08.543Z,81.07
2023-01-26T21:07:10.343Z,81.33
2023-01-26T21:09:12.981Z,81.34
2023-01-26T21:11:17.312Z,81.14
2023-01-26T21:13:19.457Z,81.62
2023-01-26T21:15:21.187Z,82.15
2023-01-26T21:17:23.079Z,81.93
2023-01-26T21:19:24.683Z,81.18
2023-01-26T21:21:26.520Z,81.59
2023-01-26T21:23:28.079Z,81.23
2023-01-26T21:25:29.676Z,81.22
2023-01-26T21:27:31.549Z,82.31
2023-01-26T21:29:33.171Z,82.81
2023-01-26T21:31:34.872Z,82.48
2023-01-26T21:33:38.685Z,81.73
2023-01-26T21:35:40.361Z,81.98
2023-01-26T21:37:42.031Z,82.38
2023-01-26T21:39:43.839Z,82.48
2023-01-26T21:41:57.488Z,82.12
2023-01-26T21:44:02.623Z,81.42
2023-01-26T21:46:04.430Z,81.84
2023-01-26T21:48:25.561Z,81.53
2023-01-26T21:50:47.134Z,80.51
2023-01-26T21:52:57.667Z,80.44
2023-01-26T21:54:59.378Z,80.30
2023-01-26T21:57:02.127Z,80.28
2023-01-26T21:59:42.315Z,80.15
2023-01-26T22:01:46.268Z,80.71
2023-01-26T22:03:48.136Z,79.62
2023-01-26T22:05:53.460Z,78.59
2023-01-26T22:07:55.071Z,79.79
2023-01-26T22:09:56.876Z,79.88
2023-01-26T22:11:58.438Z,80.51
2023-01-26T22:14:00.433Z,81.03
2023-01-26T22:16:04.386Z,80.97
2023-01-26T22:18:06.294Z,80.83
2023-01-26T22:20:09.585Z,80.90
2023-01-26T22:22:11.221Z,80.59
2023-01-26T22:24:14.422Z,79.92
2023-01-26T22:26:19.584Z,80.52
2023-01-26T22:28:21.143Z,80.84
2023-01-26T22:30:22.743Z,80.65
2023-01-26T22:32:24.419Z,80.77
2023-01-26T22:34:26.425Z,80.71
2023-01-26T22:36:28.538Z,80.97
2023-01-26T22:38:31.460Z,81.21
2023-01-26T22:40:33.183Z,81.15
2023-01-26T22:42:34.770Z,82.08
2023-01-26T22:44:36.631Z,82.35
2023-01-26T22:46:38.484Z,82.62
2023-01-26T22:48:40.199Z,82.79
2023-01-26T22:50:42.272Z,82.36
2023-01-26T22:52:43.946Z,82.52
2023-01-26T22:54:45.655Z,82.88
2023-01-26T22:56:47.215Z,82.76
2023-01-26T22:58:57.948Z,82.61
2023-01-26T23:01:14.732Z,82.87
2023-01-26T23:03:16.423Z,83.01
2023-01-26T23:05:18.010Z,83.55
2023-01-26T23:07:19.614Z,83.04
2023-01-26T23:09:21.229Z,82.91
2023-01-26T23:11:25.034Z,83.18
2023-01-26T23:13:26.674Z,82.75
2023-01-26T23:15:28.280Z,81.56
2023-01-26T23:17:29.894Z,82.08
2023-01-26T23:19:33.661Z,82.08
2023-01-26T23:21:35.302Z,82.17
2023-01-26T23:23:38.783Z,82.47
2023-01-26T23:25:52.734Z,82.85
2023-01-26T23:27:54.317Z,82.56
2023-01-26T23:29:55.948Z,82.05
2023-01-26T23:31:57.634Z,81.11
2023-01-26T23:33:59.489Z,81.07
2023-01-26T23:36:01.612Z,80.60
2023-01-26T23:38:04.100Z,80.72
2023-01-26T23:40:06.409Z,81.37
2023-01-26T23:42:07.998Z,82.04
2023-01-26T23:44:09.997Z,82.15
2023-01-26T23:46:11.943Z,82.02
2023-01-26T23:48:14.206Z,81.62
2023-01-26T23:50:16.093Z,81.10
2023-01-26T23:52:17.663Z,80.67
2023-01-26T23:54:19.347Z,80.90
2023-01-26T23:56:20.932Z,80.61
2023-01-26T23:58:22.538Z,79.85
